Time;durP1;ratioP1;P1;durP2;ratioP2;P2;SDS_P1;SDS_P2;PMS_P1;PMS_P2;Temp;Humidity;BMP_temperature;BMP_pressure;BME280_temperature;BME280_humidity;BME280_pressure;Samples;Min_cycle;Max_cycle;Signal;HPM_P1;HPM_P2
2023/04/08 00:04:24;;;;;;;22.60;13.10;;;;;;;6.37;100.00;100916.36;219041;1287;94594;-91
2023/04/08 00:09:25;;;;;;;25.90;13.10;;;;;;;6.31;100.00;100922.93;218373;1287;139364;-91
2023/04/08 00:14:25;;;;;;;24.60;12.60;;;;;;;6.25;100.00;100922.63;218792;1288;139217;-90
2023/04/08 00:19:26;;;;;;;25.50;14.10;;;;;;;6.18;100.00;100937.30;218442;1287;139060;-90
2023/04/08 00:24:26;;;;;;;26.50;13.60;;;;;;;6.10;100.00;100949.87;218917;1286;139752;-90
2023/04/08 00:29:27;;;;;;;24.10;13.10;;;;;;;6.05;100.00;100956.27;218288;1286;138740;-91
2023/04/08 00:34:27;;;;;;;24.90;13.30;;;;;;;6.02;100.00;100955.45;218960;1287;94777;-92
2023/04/08 00:39:28;;;;;;;27.60;13.40;;;;;;;6.00;100.00;100959.50;218326;1288;139065;-92
2023/04/08 00:44:28;;;;;;;24.10;12.90;;;;;;;5.97;100.00;100958.69;218915;1288;138974;-91
2023/04/08 00:49:30;;;;;;;26.40;13.30;;;;;;;5.92;100.00;100961.22;218351;1286;138643;-91
2023/04/08 00:54:30;;;;;;;25.40;13.10;;;;;;;5.88;100.00;100965.63;218818;1286;139255;-91
2023/04/08 00:59:32;;;;;;;22.90;12.10;;;;;;;5.84;100.00;100961.64;218334;1286;139689;-90
2023/04/08 01:04:39;;;;;;;29.50;14.40;;;;;;;5.78;100.00;100975.49;218815;1286;109983;-89
2023/04/08 01:09:45;;;;;;;31.10;15.70;;;;;;;5.68;100.00;100977.91;218289;1286;139529;-89
2023/04/08 01:14:46;;;;;;;29.40;15.10;;;;;;;5.58;100.00;100978.45;218923;1286;138669;-91
2023/04/08 01:19:48;;;;;;;27.70;14.60;;;;;;;5.52;100.00;100989.34;218301;1286;138934;-90
2023/04/08 01:24:54;;;;;;;23.80;13.10;;;;;;;5.45;100.00;100994.69;218840;1286;138639;-88
2023/04/08 01:29:55;;;;;;;24.80;13.50;;;;;;;5.38;100.00;100996.35;218127;1287;139557;-90
2023/04/08 01:34:57;;;;;;;27.30;14.30;;;;;;;5.31;100.00;101003.23;218960;1287;94591;-89
2023/04/08 01:40:01;;;;;;;24.70;13.40;;;;;;;5.25;100.00;101003.85;218294;1287;138552;-90
2023/04/08 01:45:03;;;;;;;25.60;13.00;;;;;;;5.20;100.00;101006.36;218795;1287;138514;-88
2023/04/08 01:50:06;;;;;;;28.00;14.00;;;;;;;5.15;100.00;101009.87;218336;1286;139059;-90
2023/04/08 01:55:07;;;;;;;29.30;14.10;;;;;;;5.10;100.00;101013.17;218701;1288;139183;-89
2023/04/08 02:00:10;;;;;;;29.60;13.40;;;;;;;5.05;100.00;101018.20;218339;1286;140737;-89
2023/04/08 02:05:10;;;;;;;26.30;14.30;;;;;;;4.99;100.00;101020.58;219039;1288;94774;-89
2023/04/08 02:10:10;;;;;;;25.50;13.60;;;;;;;4.92;100.00;101025.65;218223;1287;139045;-89
2023/04/08 02:15:13;;;;;;;26.80;14.20;;;;;;;4.87;100.00;101032.88;218904;1286;138624;-89
2023/04/08 02:20:22;;;;;;;28.40;13.10;;;;;;;4.84;100.00;101035.45;218254;1286;139000;-89
2023/04/08 02:25:24;;;;;;;24.20;12.40;;;;;;;4.79;100.00;101038.83;218772;1286;139382;-89
2023/04/08 02:30:27;;;;;;;28.20;14.40;;;;;;;4.75;100.00;101050.02;218384;1286;138826;-92
2023/04/08 02:35:28;;;;;;;24.90;13.60;;;;;;;4.71;100.00;101056.14;218810;1286;139763;-89
2023/04/08 02:40:34;;;;;;;25.20;13.50;;;;;;;4.67;100.00;101065.17;218403;1286;138745;-89
2023/04/08 02:45:40;;;;;;;29.70;14.90;;;;;;;4.64;100.00;101068.66;218801;1286;138471;-90
2023/04/08 02:50:40;;;;;;;29.00;13.50;;;;;;;4.58;100.00;101075.88;218277;1286;139462;-90
2023/04/08 02:55:41;;;;;;;26.20;13.70;;;;;;;4.54;100.00;101081.14;218937;1286;139180;-89
2023/04/08 03:00:41;;;;;;;28.10;14.10;;;;;;;4.48;100.00;101091.02;218400;1286;140059;-89
2023/04/08 03:05:42;;;;;;;27.20;13.40;;;;;;;4.43;100.00;101098.77;218911;1287;139396;-89
2023/04/08 03:10:42;;;;;;;29.10;14.10;;;;;;;4.38;100.00;101100.50;218388;1287;139709;-90
2023/04/08 03:15:42;;;;;;;27.60;13.50;;;;;;;4.33;100.00;101106.55;218882;1286;139242;-90
2023/04/08 03:20:43;;;;;;;27.60;15.10;;;;;;;4.28;100.00;101115.23;218346;1288;139503;-90
2023/04/08 03:25:44;;;;;;;27.40;14.80;;;;;;;4.24;100.00;101118.92;218873;1287;139245;-89
2023/04/08 03:30:44;;;;;;;29.70;15.40;;;;;;;4.20;100.00;101124.73;218323;1286;139942;-90
2023/04/08 03:35:45;;;;;;;29.60;13.80;;;;;;;4.18;100.00;101129.20;218694;1286;139462;-90
2023/04/08 03:40:45;;;;;;;26.90;14.20;;;;;;;4.16;100.00;101121.71;218461;1286;138366;-90
2023/04/08 03:45:46;;;;;;;35.90;15.70;;;;;;;4.15;100.00;101115.63;218889;1288;139084;-89
2023/04/08 03:50:46;;;;;;;38.90;19.40;;;;;;;4.13;100.00;101121.11;218556;1287;139618;-90
2023/04/08 03:55:49;;;;;;;38.40;17.60;;;;;;;4.08;100.00;101123.59;218891;1286;138646;-89
2023/04/08 04:00:50;;;;;;;28.70;15.40;;;;;;;4.04;100.00;101130.47;218225;1287;139192;-90
2023/04/08 04:05:50;;;;;;;26.90;13.90;;;;;;;4.03;100.00;101133.98;218840;1286;138784;-91
2023/04/08 04:10:51;;;;;;;46.30;18.50;;;;;;;3.99;100.00;101131.64;218494;1286;139474;-90
2023/04/08 04:15:51;;;;;;;28.50;15.70;;;;;;;3.90;100.00;101137.35;218735;1286;225086;-90
2023/04/08 04:20:52;;;;;;;31.20;15.80;;;;;;;3.83;100.00;101145.88;218350;1286;139042;-90
2023/04/08 04:25:52;;;;;;;32.50;15.20;;;;;;;3.82;100.00;101148.20;218882;1288;139227;-90
2023/04/08 04:30:53;;;;;;;28.80;14.30;;;;;;;3.79;100.00;101151.02;218337;1286;139056;-91
2023/04/08 04:35:53;;;;;;;28.10;14.70;;;;;;;3.71;100.00;101162.70;218890;1287;139286;-90
2023/04/08 04:40:54;;;;;;;29.20;15.10;;;;;;;3.67;100.00;101168.86;218455;1286;139068;-90
2023/04/08 04:45:55;;;;;;;32.40;16.30;;;;;;;3.63;100.00;101175.02;219015;1287;139600;-90
2023/04/08 04:50:57;;;;;;;29.40;16.00;;;;;;;3.56;100.00;101178.50;218314;1287;140576;-91
2023/04/08 04:56:00;;;;;;;33.80;16.40;;;;;;;3.53;100.00;101177.95;218749;1286;139334;-90
2023/04/08 05:01:00;;;;;;;35.30;17.40;;;;;;;3.49;100.00;101184.84;218265;1288;139139;-90
2023/04/08 05:06:01;;;;;;;29.30;15.10;;;;;;;3.48;100.00;101191.15;218789;1286;139082;-90
2023/04/08 05:11:01;;;;;;;33.00;15.90;;;;;;;3.48;100.00;101194.47;218459;1287;141160;-90
2023/04/08 05:16:02;;;;;;;37.60;18.30;;;;;;;3.47;100.00;101197.79;218875;1287;138723;-90
2023/04/08 05:21:02;;;;;;;35.20;16.90;;;;;;;3.47;100.00;101201.34;218170;1288;138904;-90
2023/04/08 05:26:06;;;;;;;31.30;15.80;;;;;;;3.49;100.00;101210.64;218915;1286;138624;-91
2023/04/08 05:31:07;;;;;;;31.00;16.10;;;;;;;3.55;100.00;101213.82;218192;1287;139433;-90
2023/04/08 05:36:07;;;;;;;35.20;16.20;;;;;;;3.63;100.00;101220.70;218809;1286;139085;-91
2023/04/08 05:41:08;;;;;;;36.80;16.80;;;;;;;3.71;100.00;101220.25;218456;1288;139133;-90
2023/04/08 05:46:09;;;;;;;35.80;17.70;;;;;;;3.80;100.00;101223.98;218764;1288;138523;-90
2023/04/08 05:51:13;;;;;;;35.00;18.50;;;;;;;3.90;100.00;101226.95;218329;1286;139289;-90
2023/04/08 05:56:14;;;;;;;35.00;17.30;;;;;;;4.01;100.00;101232.10;218872;1290;138666;-92
2023/04/08 06:01:15;;;;;;;33.80;17.30;;;;;;;4.11;100.00;101242.37;218400;1287;139337;-89
2023/04/08 06:06:16;;;;;;;37.80;20.00;;;;;;;4.23;100.00;101246.29;218901;1286;139684;-89
2023/04/08 06:11:16;;;;;;;37.50;18.90;;;;;;;4.35;100.00;101258.59;218497;1286;139185;-89
2023/04/08 06:16:17;;;;;;;37.60;20.70;;;;;;;4.47;100.00;101261.57;218896;1285;139153;-86
2023/04/08 06:21:17;;;;;;;34.00;17.80;;;;;;;4.61;100.00;101269.73;218247;1287;139546;-88
2023/04/08 06:26:18;;;;;;;37.10;18.00;;;;;;;4.73;100.00;101275.52;218838;1287;138695;-88
2023/04/08 06:31:18;;;;;;;35.90;19.30;;;;;;;4.85;100.00;101285.70;218428;1288;138776;-89
2023/04/08 06:36:19;;;;;;;38.10;18.90;;;;;;;4.97;100.00;101289.98;218795;1286;138794;-88
2023/04/08 06:41:19;;;;;;;34.40;18.60;;;;;;;5.07;100.00;101296.70;218479;1288;139042;-88
2023/04/08 06:46:20;;;;;;;37.60;18.80;;;;;;;5.15;100.00;101296.67;218851;1288;138270;-88
2023/04/08 06:51:21;;;;;;;36.30;18.50;;;;;;;5.25;100.00;101303.85;218327;1288;138985;-89
2023/04/08 06:56:21;;;;;;;38.00;20.90;;;;;;;5.37;100.00;101307.70;218909;1286;138798;-87
2023/04/08 07:01:22;;;;;;;35.50;19.60;;;;;;;5.46;100.00;101309.67;218363;1288;139432;-87
2023/04/08 07:06:23;;;;;;;36.90;19.50;;;;;;;5.57;100.00;101324.83;218810;1286;138698;-86
2023/04/08 07:11:23;;;;;;;42.00;22.50;;;;;;;5.68;100.00;101325.50;218152;1286;139405;-86
2023/04/08 07:16:24;;;;;;;39.60;21.10;;;;;;;5.79;100.00;101328.88;218987;1286;95327;-87
2023/04/08 07:21:24;;;;;;;41.80;21.90;;;;;;;5.84;100.00;101330.93;218432;1287;139154;-87
2023/04/08 07:26:27;;;;;;;40.70;22.40;;;;;;;5.94;100.00;101337.08;218945;1286;139368;-88
2023/04/08 07:31:27;;;;;;;38.60;21.50;;;;;;;6.07;100.00;101342.59;218321;1287;140293;-87
2023/04/08 07:36:27;;;;;;;37.20;21.60;;;;;;;6.17;100.00;101346.51;218792;1288;139285;-87
2023/04/08 07:41:28;;;;;;;40.30;22.30;;;;;;;6.20;100.00;101348.60;218280;1288;139712;-86
2023/04/08 07:46:28;;;;;;;37.60;21.60;;;;;;;6.23;100.00;101351.99;219040;1288;95991;-86
2023/04/08 07:51:29;;;;;;;40.10;22.30;;;;;;;6.28;100.00;101356.66;218272;1286;141203;-86
2023/04/08 07:56:29;;;;;;;44.10;26.00;;;;;;;6.35;100.00;101357.14;218778;1288;138628;-85
2023/04/08 08:01:30;;;;;;;45.00;25.90;;;;;;;6.37;100.00;101361.44;218334;1287;139520;-86
2023/04/08 08:06:33;;;;;;;42.70;22.70;;;;;;;6.47;100.00;101367.32;218951;1289;138854;-86
2023/04/08 08:11:33;;;;;;;37.00;20.80;;;;;;;6.59;100.00;101378.32;218303;1288;139751;-85
2023/04/08 08:16:34;;;;;;;38.40;21.20;;;;;;;6.69;100.00;101385.92;218821;1286;103168;-86
2023/04/08 08:21:36;;;;;;;41.20;21.60;;;;;;;6.72;100.00;101390.59;218195;1288;139234;-85
2023/04/08 08:26:37;;;;;;;38.20;21.00;;;;;;;6.75;100.00;101390.80;218761;1288;139419;-86
2023/04/08 08:31:37;;;;;;;37.30;21.00;;;;;;;6.87;100.00;101396.75;218120;1288;139354;-86
2023/04/08 08:36:37;;;;;;;39.60;23.00;;;;;;;6.99;100.00;101401.55;218914;1286;140415;-86
2023/04/08 08:41:38;;;;;;;38.80;21.40;;;;;;;7.12;100.00;101406.23;218338;1287;139230;-87
2023/04/08 08:46:46;;;;;;;36.60;21.20;;;;;;;7.13;100.00;101403.70;218822;1288;95301;-86
2023/04/08 08:51:47;;;;;;;38.10;22.50;;;;;;;7.17;100.00;101410.59;218258;1288;138847;-86
2023/04/08 08:56:48;;;;;;;41.30;24.30;;;;;;;7.26;100.00;101409.53;218869;1288;139095;-86
2023/04/08 09:01:49;;;;;;;38.90;21.80;;;;;;;7.38;100.00;101411.13;218388;1287;139335;-85
2023/04/08 09:07:07;;;;;;;39.10;22.50;;;;;;;7.53;100.00;101413.59;218950;1287;138803;-85
2023/04/08 09:12:07;;;;;;;38.30;21.30;;;;;;;7.56;100.00;101421.13;218183;1288;139182;-85
2023/04/08 09:17:08;;;;;;;34.80;20.30;;;;;;;7.68;100.00;101421.36;218973;1287;95632;-84
2023/04/08 09:22:10;;;;;;;37.60;21.50;;;;;;;7.85;100.00;101424.70;218251;1288;138857;-84
2023/04/08 09:27:12;;;;;;;36.90;21.00;;;;;;;8.00;100.00;101427.23;218860;1288;138606;-85
2023/04/08 09:32:13;;;;;;;32.10;18.30;;;;;;;8.22;100.00;101426.66;218242;1288;138970;-85
2023/04/08 09:37:13;;;;;;;36.80;22.40;;;;;;;8.31;100.00;101424.31;218880;1286;139431;-85
2023/04/08 09:42:14;;;;;;;36.20;20.50;;;;;;;8.57;100.00;101422.57;218375;1288;139451;-86
2023/04/08 09:47:23;;;;;;;34.90;21.00;;;;;;;8.87;100.00;101421.59;219040;1286;95305;-86
2023/04/08 09:52:32;;;;;;;33.30;20.70;;;;;;;9.42;100.00;101427.08;218378;1286;138759;-86
2023/04/08 09:57:56;;;;;;;33.10;20.30;;;;;;;9.74;100.00;101431.54;218702;1288;138597;-86
2023/04/08 10:03:09;;;;;;;33.80;20.90;;;;;;;9.96;100.00;101427.73;218423;1288;139515;-85
2023/04/08 10:08:09;;;;;;;33.40;20.70;;;;;;;10.28;98.90;101430.08;218828;1289;139147;-85
2023/04/08 10:13:10;;;;;;;34.00;20.70;;;;;;;10.46;98.94;101426.41;218401;1288;139328;-86
2023/04/08 10:18:12;;;;;;;32.70;20.20;;;;;;;10.64;97.05;101428.24;218835;1288;138939;-85
2023/04/08 10:23:15;;;;;;;33.70;23.50;;;;;;;10.81;95.63;101428.00;218487;1286;139652;-85
2023/04/08 10:28:18;;;;;;;29.20;20.60;;;;;;;10.88;93.41;101432.98;218812;1289;138655;-85
2023/04/08 10:33:28;;;;;;;32.70;21.40;;;;;;;10.76;92.09;101435.64;218302;1287;140506;-86
2023/04/08 10:38:29;;;;;;;29.50;20.20;;;;;;;11.14;91.45;101429.32;218590;1289;139966;-85
2023/04/08 10:43:33;;;;;;;30.50;21.00;;;;;;;11.23;88.95;101429.30;218181;1287;141038;-85
2023/04/08 10:48:33;;;;;;;31.80;20.90;;;;;;;11.20;88.04;101430.01;218719;1290;139534;-85
2023/04/08 10:53:36;;;;;;;27.90;18.30;;;;;;;11.18;86.53;101430.20;218315;1289;139745;-85
2023/04/08 10:58:49;;;;;;;27.70;20.10;;;;;;;11.12;84.12;101429.10;218886;1287;95033;-85
2023/04/08 11:03:50;;;;;;;29.60;20.10;;;;;;;11.06;85.59;101434.46;218443;1288;139033;-85
2023/04/08 11:08:50;;;;;;;30.00;20.60;;;;;;;11.18;85.30;101435.09;217971;1291;139834;-84
2023/04/08 11:13:51;;;;;;;27.70;18.90;;;;;;;11.18;83.30;101430.42;218568;1289;140382;-86
2023/04/08 11:18:53;;;;;;;31.40;20.80;;;;;;;11.37;85.44;101430.90;218154;1289;139741;-87
2023/04/08 11:23:53;;;;;;;28.70;17.40;;;;;;;11.96;84.11;101423.83;218715;1288;139088;-85
2023/04/08 11:28:56;;;;;;;28.20;18.40;;;;;;;12.47;83.38;101423.84;218352;1286;139303;-86
2023/04/08 11:33:57;;;;;;;27.50;17.50;;;;;;;13.06;82.95;101422.41;218745;1287;140234;-87
2023/04/08 11:38:57;;;;;;;27.50;17.90;;;;;;;13.56;78.78;101431.35;218227;1286;139387;-87
2023/04/08 11:43:57;;;;;;;29.10;18.40;;;;;;;13.69;78.43;101435.12;218695;1287;138841;-87
2023/04/08 11:49:00;;;;;;;29.70;18.60;;;;;;;14.17;77.33;101427.41;218244;1288;138971;-87
2023/04/08 11:54:05;;;;;;;28.20;19.60;;;;;;;14.38;74.89;101433.92;218965;1286;139341;-86
2023/04/08 11:59:05;;;;;;;26.40;17.40;;;;;;;14.63;73.25;101436.81;218275;1289;139226;-86
2023/04/08 12:04:09;;;;;;;26.20;17.10;;;;;;;14.61;71.98;101438.46;218850;1287;139330;-86
2023/04/08 12:09:09;;;;;;;27.30;18.30;;;;;;;14.46;72.21;101432.82;218283;1288;139992;-87
2023/04/08 12:14:09;;;;;;;23.70;16.40;;;;;;;14.61;72.44;101436.48;218826;1286;140067;-86
2023/04/08 12:19:10;;;;;;;26.30;16.30;;;;;;;14.76;71.33;101436.08;218287;1288;140203;-86
2023/04/08 12:24:10;;;;;;;27.30;18.30;;;;;;;14.55;70.17;101433.73;218730;1289;139463;-84
2023/04/08 12:29:11;;;;;;;25.70;17.60;;;;;;;14.28;68.62;101433.15;218371;1288;141246;-86
2023/04/08 12:34:12;;;;;;;24.80;16.80;;;;;;;14.09;69.60;101432.91;218604;1290;138859;-87
2023/04/08 12:39:12;;;;;;;29.30;17.00;;;;;;;14.05;70.59;101430.00;218239;1288;139623;-86
2023/04/08 12:44:13;;;;;;;24.90;16.40;;;;;;;14.08;70.34;101431.16;218852;1286;139808;-87
2023/04/08 12:49:13;;;;;;;26.20;16.90;;;;;;;13.96;69.58;101427.42;218212;1286;139347;-87
2023/04/08 12:54:14;;;;;;;24.70;16.20;;;;;;;13.84;70.08;101425.45;218711;1289;139518;-87
2023/04/08 12:59:14;;;;;;;23.80;16.80;;;;;;;13.97;71.17;101419.63;218109;1290;141364;-87
2023/04/08 13:04:15;;;;;;;26.50;17.90;;;;;;;13.82;68.76;101424.14;218712;1289;140225;-87
2023/04/08 13:09:15;;;;;;;24.10;16.90;;;;;;;13.64;69.97;101423.42;218225;1291;138583;-87
2023/04/08 13:14:16;;;;;;;26.10;17.40;;;;;;;13.58;69.80;101423.24;218809;1291;138718;-88
2023/04/08 13:19:16;;;;;;;23.90;16.80;;;;;;;13.44;69.32;101421.07;218260;1286;138555;-87
2023/04/08 13:24:17;;;;;;;26.40;17.40;;;;;;;13.39;69.89;101422.98;218889;1287;139020;-86
2023/04/08 13:29:17;;;;;;;25.30;16.40;;;;;;;13.31;70.57;101415.40;218381;1286;138576;-87
2023/04/08 13:34:18;;;;;;;24.30;17.00;;;;;;;13.38;71.51;101417.66;218710;1288;138049;-86
2023/04/08 13:39:19;;;;;;;24.70;17.00;;;;;;;13.42;71.19;101419.16;218310;1290;138890;-87
2023/04/08 13:44:19;;;;;;;25.50;17.90;;;;;;;13.34;70.64;101422.64;218745;1288;138145;-85
2023/04/08 13:49:20;;;;;;;26.40;16.40;;;;;;;13.38;70.91;101421.60;218175;1286;138932;-86
2023/04/08 13:54:20;;;;;;;24.80;17.00;;;;;;;13.21;69.02;101421.41;218861;1288;138053;-85
2023/04/08 13:59:21;;;;;;;24.90;16.20;;;;;;;13.03;68.99;101420.16;218381;1286;138296;-85
2023/04/08 14:04:21;;;;;;;25.40;16.30;;;;;;;12.87;68.80;101415.21;218845;1290;138487;-86
2023/04/08 14:09:23;;;;;;;26.70;17.30;;;;;;;12.93;70.83;101408.70;218203;1288;138505;-85
2023/04/08 14:14:23;;;;;;;25.60;17.30;;;;;;;13.02;70.46;101409.09;218669;1288;138336;-85
2023/04/08 14:19:24;;;;;;;23.20;15.10;;;;;;;13.07;70.67;101405.25;218133;1286;138147;-86
2023/04/08 14:24:24;;;;;;;23.40;16.30;;;;;;;13.20;70.33;101400.55;218810;1286;139332;-87
2023/04/08 14:29:25;;;;;;;24.50;16.90;;;;;;;13.24;69.29;101397.77;218157;1288;139521;-86
2023/04/08 14:34:26;;;;;;;22.90;15.40;;;;;;;13.29;70.01;101391.60;218938;1286;94728;-87
2023/04/08 14:39:27;;;;;;;22.60;14.50;;;;;;;13.38;69.80;101387.09;218433;1286;138196;-87
2023/04/08 14:44:27;;;;;;;24.20;15.40;;;;;;;13.47;70.04;101384.61;218707;1286;138335;-87
2023/04/08 14:49:28;;;;;;;26.50;17.10;;;;;;;13.48;68.27;101389.45;218234;1286;138723;-87
2023/04/08 14:54:28;;;;;;;23.90;16.10;;;;;;;13.28;67.73;101392.85;218709;1286;138680;-87
2023/04/08 14:59:29;;;;;;;24.40;15.80;;;;;;;13.02;67.47;101395.83;218229;1287;138917;-88
2023/04/08 15:04:29;;;;;;;23.30;15.40;;;;;;;12.83;67.50;101392.64;218719;1286;95235;-87
2023/04/08 15:09:30;;;;;;;25.30;16.50;;;;;;;12.65;66.45;101389.95;218329;1288;139520;-87
2023/04/08 15:14:30;;;;;;;22.60;14.00;;;;;;;12.44;67.06;101393.10;218639;1286;138629;-87
2023/04/08 15:19:31;;;;;;;23.10;15.10;;;;;;;12.43;69.21;101393.73;218267;1287;139131;-87
2023/04/08 15:24:31;;;;;;;24.90;15.10;;;;;;;12.51;69.51;101392.54;218784;1286;138116;-87
2023/04/08 15:29:31;;;;;;;25.90;16.30;;;;;;;12.55;69.42;101394.18;218255;1286;138360;-86
2023/04/08 15:34:32;;;;;;;22.00;14.70;;;;;;;12.51;69.33;101391.81;218946;1286;94658;-88
2023/04/08 15:39:32;;;;;;;24.80;15.80;;;;;;;12.38;70.15;101396.14;218132;1289;138017;-87
2023/04/08 15:44:33;;;;;;;22.80;14.50;;;;;;;12.25;70.83;101398.02;218882;1288;138435;-87
2023/04/08 15:49:33;;;;;;;23.50;14.90;;;;;;;12.11;70.77;101399.79;218313;1287;139425;-86
2023/04/08 15:54:34;;;;;;;25.50;17.50;;;;;;;11.99;70.36;101402.77;218889;1287;138821;-88
2023/04/08 15:59:35;;;;;;;24.20;15.50;;;;;;;11.96;71.20;101404.29;218302;1286;139098;-88
2023/04/08 16:04:35;;;;;;;28.40;16.30;;;;;;;11.95;70.98;101406.79;218972;1287;94804;-88
2023/04/08 16:09:36;;;;;;;22.00;14.20;;;;;;;11.90;70.92;101408.98;218299;1288;138660;-87
2023/04/08 16:14:36;;;;;;;25.00;15.80;;;;;;;11.82;70.32;101411.71;218463;1286;551291;-87
2023/04/08 16:19:37;;;;;;;21.20;12.80;;;;;;;11.75;71.84;101409.91;218291;1288;138780;-87
2023/04/08 16:24:37;;;;;;;21.60;14.10;;;;;;;11.68;72.37;101409.42;218845;1286;138239;-86
2023/04/08 16:29:38;;;;;;;22.70;14.40;;;;;;;11.59;72.52;101413.85;218365;1286;139031;-85
2023/04/08 16:34:38;;;;;;;23.50;14.50;;;;;;;11.56;71.97;101418.11;218961;1288;95044;-86
2023/04/08 16:39:39;;;;;;;21.00;13.00;;;;;;;11.52;72.48;101415.26;218327;1288;139311;-86
2023/04/08 16:44:40;;;;;;;23.00;14.40;;;;;;;11.41;73.33;101418.16;218830;1286;139051;-86
2023/04/08 16:49:41;;;;;;;25.00;14.20;;;;;;;11.30;73.38;101422.39;218275;1287;139262;-86
2023/04/08 16:54:43;;;;;;;22.20;14.40;;;;;;;11.19;74.62;101422.84;218842;1288;141772;-85
2023/04/08 16:59:43;;;;;;;21.80;14.70;;;;;;;11.08;75.09;101421.15;218306;1286;139398;-85
2023/04/08 17:04:48;;;;;;;19.90;13.10;;;;;;;10.97;75.91;101425.03;219003;1287;94829;-85
2023/04/08 17:09:52;;;;;;;22.50;14.10;;;;;;;10.85;76.39;101431.64;218121;1287;139008;-85
2023/04/08 17:14:52;;;;;;;20.60;13.40;;;;;;;10.70;77.22;101432.98;218853;1286;140193;-85
2023/04/08 17:19:53;;;;;;;21.00;13.30;;;;;;;10.59;78.01;101435.81;218296;1286;140305;-85
2023/04/08 17:24:54;;;;;;;21.80;13.70;;;;;;;10.48;78.26;101438.50;218676;1288;139449;-85
2023/04/08 17:29:56;;;;;;;21.40;13.50;;;;;;;10.28;78.80;101445.89;218332;1287;140687;-85
2023/04/08 17:34:57;;;;;;;23.60;15.00;;;;;;;10.06;79.91;101445.39;218966;1286;94682;-86
2023/04/08 17:39:57;;;;;;;22.10;14.40;;;;;;;9.87;80.84;101445.66;218332;1286;139252;-85
2023/04/08 17:45:00;;;;;;;26.60;16.70;;;;;;;9.67;81.71;101441.14;218851;1287;138561;-84
2023/04/08 17:50:01;;;;;;;25.40;15.80;;;;;;;9.49;82.40;101447.55;218289;1286;139528;-84
2023/04/08 17:55:01;;;;;;;26.50;16.70;;;;;;;9.29;83.01;101450.98;218841;1287;138698;-85
2023/04/08 18:00:02;;;;;;;24.10;16.40;;;;;;;9.06;83.61;101450.46;218307;1286;138901;-84
2023/04/08 18:05:03;;;;;;;32.40;19.40;;;;;;;8.85;84.06;101457.98;218927;1288;95260;-85
2023/04/08 18:10:04;;;;;;;32.30;20.20;;;;;;;8.63;84.62;101465.67;218351;1288;138734;-85
2023/04/08 18:15:05;;;;;;;31.50;20.30;;;;;;;8.41;85.09;101479.37;218920;1286;138744;-84
2023/04/08 18:20:06;;;;;;;35.60;22.50;;;;;;;8.15;85.39;101484.12;218349;1286;138822;-85
2023/04/08 18:25:07;;;;;;;35.70;22.70;;;;;;;7.92;86.23;101486.28;218870;1287;138957;-85
2023/04/08 18:30:07;;;;;;;35.30;22.80;;;;;;;7.75;87.02;101485.98;218306;1286;139403;-85
2023/04/08 18:35:08;;;;;;;36.00;23.40;;;;;;;7.63;87.63;101490.30;218980;1286;94785;-85
2023/04/08 18:40:09;;;;;;;38.30;23.80;;;;;;;7.53;88.18;101494.05;218335;1286;138901;-85
2023/04/08 18:45:10;;;;;;;35.50;21.10;;;;;;;7.47;88.39;101497.88;218874;1286;138747;-84
2023/04/08 18:50:10;;;;;;;38.60;23.00;;;;;;;7.31;88.46;101503.40;218265;1288;138933;-85
2023/04/08 18:55:11;;;;;;;56.50;27.30;;;;;;;7.13;89.03;101510.92;218721;1286;139992;-84
2023/04/08 19:00:11;;;;;;;70.30;31.50;;;;;;;7.00;89.66;101514.54;218256;1286;139303;-84
2023/04/08 19:05:12;;;;;;;72.40;31.50;;;;;;;6.90;90.29;101512.60;218804;1287;95107;-84
2023/04/08 19:10:12;;;;;;;54.00;26.50;;;;;;;6.79;90.78;101514.08;218538;1286;139192;-83
2023/04/08 19:15:13;;;;;;;50.10;27.00;;;;;;;6.69;91.38;101514.64;218842;1286;138935;-85
2023/04/08 19:20:14;;;;;;;51.00;26.50;;;;;;;6.57;91.73;101512.95;218359;1286;139812;-85
2023/04/08 19:25:15;;;;;;;53.70;28.50;;;;;;;6.44;91.92;101507.91;218836;1286;139252;-86
2023/04/08 19:30:16;;;;;;;45.60;27.50;;;;;;;6.30;92.28;101510.54;218331;1288;139085;-85
2023/04/08 19:35:16;;;;;;;55.50;29.60;;;;;;;6.17;92.75;101512.95;218960;1286;94627;-84
2023/04/08 19:40:18;;;;;;;54.50;30.80;;;;;;;6.03;93.18;101512.30;218342;1286;139340;-84
2023/04/08 19:45:19;;;;;;;54.30;31.40;;;;;;;5.87;93.30;101512.85;218911;1285;138402;-84
2023/04/08 19:50:21;;;;;;;52.70;29.10;;;;;;;5.74;93.96;101510.60;218284;1286;139153;-84
2023/04/08 19:55:21;;;;;;;52.40;28.50;;;;;;;5.62;94.58;101508.89;218879;1287;138528;-84
2023/04/08 20:00:22;;;;;;;56.10;29.30;;;;;;;5.52;95.00;101513.81;218328;1287;138965;-84
2023/04/08 20:05:23;;;;;;;52.20;27.70;;;;;;;5.44;95.13;101512.62;219059;1286;94688;-84
2023/04/08 20:10:23;;;;;;;52.80;28.40;;;;;;;5.37;95.35;101515.61;218410;1286;139158;-84
2023/04/08 20:15:23;;;;;;;52.70;29.10;;;;;;;5.28;95.83;101517.77;218896;1287;138403;-84
2023/04/08 20:20:24;;;;;;;55.80;30.00;;;;;;;5.20;95.86;101523.10;218271;1288;138949;-83
2023/04/08 20:25:24;;;;;;;49.00;27.10;;;;;;;5.11;96.09;101521.90;218922;1286;138507;-84
2023/04/08 20:30:25;;;;;;;52.70;27.50;;;;;;;5.02;96.24;101521.12;218364;1287;139506;-84
2023/04/08 20:35:25;;;;;;;48.00;26.80;;;;;;;4.94;96.50;101521.70;218884;1288;138471;-84
2023/04/08 20:40:26;;;;;;;46.00;25.30;;;;;;;4.89;97.15;101522.55;218533;1286;138551;-86
2023/04/08 20:45:27;;;;;;;48.60;27.50;;;;;;;4.82;97.20;101525.15;218909;1287;138332;-87
2023/04/08 20:50:28;;;;;;;47.10;27.70;;;;;;;4.72;97.42;101520.21;218391;1289;139080;-87
2023/04/08 20:55:29;;;;;;;51.60;29.30;;;;;;;4.68;97.69;101522.78;219251;1287;138532;-88
2023/04/08 21:00:30;;;;;;;49.50;27.00;;;;;;;4.64;98.10;101521.17;218473;1286;139701;-86
2023/04/08 21:05:30;;;;;;;49.90;28.10;;;;;;;4.60;98.50;101524.78;218895;1286;138584;-86
2023/04/08 21:10:30;;;;;;;60.00;35.00;;;;;;;4.57;98.52;101532.80;218489;1287;139732;-88
2023/04/08 21:15:31;;;;;;;57.10;33.00;;;;;;;4.56;98.73;101531.04;218890;1287;138570;-86
2023/04/08 21:20:31;;;;;;;59.30;34.20;;;;;;;4.54;99.00;101533.04;218405;1287;139090;-86
2023/04/08 21:25:32;;;;;;;66.90;37.30;;;;;;;4.52;99.37;101533.27;218605;1288;138758;-86
2023/04/08 21:30:33;;;;;;;66.70;35.70;;;;;;;4.52;99.97;101529.43;218217;1286;139427;-88
2023/04/08 21:35:33;;;;;;;61.00;33.90;;;;;;;4.54;100.00;101529.00;218951;1287;139056;-87
2023/04/08 21:40:34;;;;;;;62.60;34.10;;;;;;;4.57;100.00;101529.42;218550;1286;139824;-88
2023/04/08 21:45:34;;;;;;;61.50;33.80;;;;;;;4.61;100.00;101531.14;218835;1288;138834;-88
2023/04/08 21:50:36;;;;;;;66.50;36.00;;;;;;;4.65;100.00;101527.98;218435;1288;138744;-89
2023/04/08 21:55:36;;;;;;;62.30;32.30;;;;;;;4.67;100.00;101526.30;218783;1287;139689;-88
2023/04/08 22:00:37;;;;;;;57.20;31.00;;;;;;;4.70;100.00;101529.75;218298;1286;138658;-87
2023/04/08 22:05:38;;;;;;;57.20;32.60;;;;;;;4.72;100.00;101528.54;218822;1286;139293;-89
2023/04/08 22:10:38;;;;;;;65.00;33.10;;;;;;;4.75;100.00;101528.70;218366;1288;139252;-88
2023/04/08 22:15:39;;;;;;;56.80;30.20;;;;;;;4.80;100.00;101528.84;218970;1288;138455;-88
2023/04/08 22:20:39;;;;;;;62.90;33.50;;;;;;;4.84;100.00;101531.95;218376;1286;139117;-87
2023/04/08 22:25:40;;;;;;;63.40;33.70;;;;;;;4.88;100.00;101532.30;218946;1286;138858;-89